Terminal Aerodrome Forecast
Issued by NWS

Home | Current Version | Previous Version | Text Only | Print | Product List | Glossary On
Versions: 1 2 3 4 5 6 7 8 9 10 11 12 13 14 15 16 17 18 19 20 21 22 23 24 25 26
000
FTUS42 KCAE 222300
TAFOGB
TAF
KOGB 222334Z 2300/2324 05005KT P6SM -SHRA SCT025 OVC100
      TEMPO 2300/2304 5SM -SHRA BR BKN025
     FM230800 05008KT 4SM BR OVC025
     FM231800 05011KT P6SM OVC035=

USA.gov is the U.S. government's official web portal to all federal, state and local government web resources and services.